Time;durP1;ratioP1;P1;durP2;ratioP2;P2;SDS_P1;SDS_P2;PMS_P1;PMS_P2;Temp;Humidity;BMP_temperature;BMP_pressure;BME280_temperature;BME280_humidity;BME280_pressure;Samples;Min_cycle;Max_cycle;Signal;HPM_P1;HPM_P2
2022/04/09 00:01:16;;;;;;;5.90;2.80;;;;;;;;;;5030208;28;20235;-78
2022/04/09 00:03:44;;;;;;;10.30;3.33;;;;;;;;;;5030873;28;20206;-78
2022/04/09 00:06:11;;;;;;;6.40;2.85;;;;;;;;;;5030802;28;20195;-77
2022/04/09 00:08:38;;;;;;;4.80;3.08;;;;;;;;;;5021471;28;20266;-78
2022/04/09 00:11:06;;;;;;;6.65;3.00;;;;;;;;;;5012787;28;20203;-78
2022/04/09 00:13:33;;;;;;;5.50;3.40;;;;;;;;;;5012955;28;20200;-78
2022/04/09 00:16:00;;;;;;;7.60;3.38;;;;;;;;;;5018013;28;20195;-78
2022/04/09 00:18:28;;;;;;;8.88;3.95;;;;;;;;;;5019896;28;20219;-78
2022/04/09 00:20:56;;;;;;;5.82;3.13;;;;;;;;;;5029921;28;20238;-79
2022/04/09 00:23:24;;;;;;;9.32;3.38;;;;;;;;;;5030368;28;20589;-78
2022/04/09 00:25:51;;;;;;;8.35;2.80;;;;;;;;;;5031134;28;20231;-80
2022/04/09 00:28:18;;;;;;;7.50;3.30;;;;;;;;;;5031099;28;20219;-79
2022/04/09 00:30:45;;;;;;;7.38;2.90;;;;;;;;;;5022276;28;20200;-79
2022/04/09 00:33:13;;;;;;;7.97;3.22;;;;;;;;;;5012780;28;20211;-77
2022/04/09 00:35:42;;;;;;;5.63;3.00;;;;;;;;;;5012673;28;20195;-80
2022/04/09 00:38:09;;;;;;;7.05;3.25;;;;;;;;;;5017963;28;20219;-79
2022/04/09 00:40:37;;;;;;;6.03;3.00;;;;;;;;;;5017607;28;20187;-79
2022/04/09 00:43:04;;;;;;;7.95;3.10;;;;;;;;;;5009983;28;20214;-78
2022/04/09 00:45:31;;;;;;;7.57;2.83;;;;;;;;;;5010373;28;20196;-79
2022/04/09 00:47:58;;;;;;;9.68;4.13;;;;;;;;;;5011051;28;20595;-79
2022/04/09 00:50:25;;;;;;;9.65;3.13;;;;;;;;;;5010755;28;20224;-78
2022/04/09 00:52:57;;;;;;;9.48;4.70;;;;;;;;;;5011049;28;20258;-79
2022/04/09 00:58:05;;;;;;;13.30;4.15;;;;;;;;;;5000197;28;20299;-79
2022/04/09 01:00:32;;;;;;;8.63;3.50;;;;;;;;;;5021121;28;20662;-80
2022/04/09 01:02:59;;;;;;;7.13;3.50;;;;;;;;;;5021352;28;20212;-78
2022/04/09 01:05:27;;;;;;;9.70;3.33;;;;;;;;;;5013569;28;20212;-78
2022/04/09 01:07:56;;;;;;;8.32;4.00;;;;;;;;;;5013514;28;20309;-79
2022/04/09 01:10:23;;;;;;;12.75;4.00;;;;;;;;;;5014457;28;20235;-80
2022/04/09 01:12:50;;;;;;;11.18;4.07;;;;;;;;;;5014406;28;20275;-79
2022/04/09 01:15:17;;;;;;;5.82;3.10;;;;;;;;;;5014235;28;20207;-79
2022/04/09 01:17:44;;;;;;;8.35;3.53;;;;;;;;;;5015748;28;20243;-78
2022/04/09 01:20:15;;;;;;;7.20;3.90;;;;;;;;;;5015638;28;20200;-79
2022/04/09 01:22:44;;;;;;;11.95;3.85;;;;;;;;;;5020400;28;20223;-80
2022/04/09 01:25:11;;;;;;;8.38;3.92;;;;;;;;;;5021402;28;20557;-80
2022/04/09 01:27:38;;;;;;;5.85;3.20;;;;;;;;;;5013654;28;20249;-79
2022/04/09 01:30:06;;;;;;;10.10;3.45;;;;;;;;;;5013862;28;20195;-79
2022/04/09 01:32:34;;;;;;;10.73;4.75;;;;;;;;;;4996350;28;20192;-79
2022/04/09 01:35:01;;;;;;;7.18;3.55;;;;;;;;;;4996552;28;20646;-80
2022/04/09 01:37:28;;;;;;;7.43;3.58;;;;;;;;;;5013723;28;20550;-80
2022/04/09 01:39:57;;;;;;;7.72;3.30;;;;;;;;;;5015634;28;20203;-79
2022/04/09 01:42:26;;;;;;;12.93;3.67;;;;;;;;;;5015351;28;20216;-78
2022/04/09 01:44:53;;;;;;;6.28;3.22;;;;;;;;;;5019477;28;20578;-79
2022/04/09 01:47:20;;;;;;;11.00;2.97;;;;;;;;;;5020846;28;20192;-79
2022/04/09 01:49:47;;;;;;;15.15;4.00;;;;;;;;;;5014062;28;20693;-79
2022/04/09 01:52:14;;;;;;;9.77;3.20;;;;;;;;;;5013229;28;20200;-79
2022/04/09 01:54:41;;;;;;;10.60;3.20;;;;;;;;;;5013154;28;20204;-79
2022/04/09 01:57:10;;;;;;;11.55;3.25;;;;;;;;;;5013518;28;20204;-80
2022/04/09 01:59:37;;;;;;;7.53;3.20;;;;;;;;;;5012678;28;20227;-78
2022/04/09 02:02:05;;;;;;;9.25;2.67;;;;;;;;;;5014764;28;20255;-79
2022/04/09 02:04:32;;;;;;;8.35;3.25;;;;;;;;;;5015093;28;20207;-79
2022/04/09 02:06:59;;;;;;;15.10;4.95;;;;;;;;;;5018798;28;20638;-78
2022/04/09 02:09:27;;;;;;;9.27;3.83;;;;;;;;;;5020131;28;20215;-78
2022/04/09 02:11:54;;;;;;;13.48;3.30;;;;;;;;;;5029094;28;20199;-77
2022/04/09 02:14:22;;;;;;;8.20;2.95;;;;;;;;;;5033003;28;20199;-79
2022/04/09 02:16:49;;;;;;;9.77;3.38;;;;;;;;;;5032921;28;20395;-78
2022/04/09 02:19:17;;;;;;;7.32;2.88;;;;;;;;;;5032911;28;20223;-80
2022/04/09 02:21:44;;;;;;;9.52;3.22;;;;;;;;;;5031694;28;20219;-79
2022/04/09 02:24:11;;;;;;;15.07;3.17;;;;;;;;;;5014530;28;20207;-78
2022/04/09 02:26:38;;;;;;;11.25;3.40;;;;;;;;;;5014451;28;20200;-80
2022/04/09 02:29:06;;;;;;;11.25;3.58;;;;;;;;;;5017775;28;20249;-79
2022/04/09 02:31:34;;;;;;;12.43;3.97;;;;;;;;;;5020287;28;20191;-81
2022/04/09 02:34:02;;;;;;;10.32;3.78;;;;;;;;;;5014337;28;20605;-79
2022/04/09 02:36:30;;;;;;;8.80;3.13;;;;;;;;;;5012293;28;20204;-79
2022/04/09 02:38:58;;;;;;;9.80;4.00;;;;;;;;;;5012236;28;20216;-78
2022/04/09 02:41:25;;;;;;;11.13;3.30;;;;;;;;;;5012383;28;20274;-79
2022/04/09 02:43:52;;;;;;;9.88;3.13;;;;;;;;;;5011970;28;20620;-77
2022/04/09 02:46:22;;;;;;;11.02;4.18;;;;;;;;;;4994527;28;20212;-79
2022/04/09 02:48:50;;;;;;;7.65;3.80;;;;;;;;;;4994153;28;20698;-79
2022/04/09 02:51:18;;;;;;;10.65;3.20;;;;;;;;;;5011040;28;20204;-79
2022/04/09 02:53:45;;;;;;;10.80;3.95;;;;;;;;;;5019331;28;20196;-79
2022/04/09 02:56:12;;;;;;;13.95;4.72;;;;;;;;;;5027718;28;20459;-79
2022/04/09 02:58:39;;;;;;;15.95;4.40;;;;;;;;;;5031507;28;20222;-79
2022/04/09 03:01:07;;;;;;;10.57;4.38;;;;;;;;;;5031849;28;20210;-81
2022/04/09 03:03:34;;;;;;;10.63;4.00;;;;;;;;;;5032009;28;20219;-79
2022/04/09 03:06:02;;;;;;;9.98;3.97;;;;;;;;;;5031209;28;20214;-78
2022/04/09 03:08:29;;;;;;;13.07;3.90;;;;;;;;;;5013507;28;20223;-79
2022/04/09 03:10:56;;;;;;;16.25;3.70;;;;;;;;;;5013592;28;20642;-77
2022/04/09 03:13:26;;;;;;;16.05;4.18;;;;;;;;;;5017450;28;20187;-76
2022/04/09 03:15:53;;;;;;;11.40;3.83;;;;;;;;;;5018782;28;20198;-77
2022/04/09 03:18:21;;;;;;;14.15;4.25;;;;;;;;;;5012968;28;20445;-78
2022/04/09 03:20:48;;;;;;;11.27;3.70;;;;;;;;;;5011107;28;20192;-78
2022/04/09 03:23:16;;;;;;;11.00;3.78;;;;;;;;;;5011362;28;20220;-78
2022/04/09 03:25:43;;;;;;;19.30;4.05;;;;;;;;;;5011692;28;20200;-78
2022/04/09 03:28:10;;;;;;;12.23;4.18;;;;;;;;;;5011285;28;20216;-77
2022/04/09 03:30:38;;;;;;;11.05;4.32;;;;;;;;;;5013436;28;20204;-76
2022/04/09 03:33:06;;;;;;;11.48;4.20;;;;;;;;;;5013340;28;20550;-78
2022/04/09 03:35:33;;;;;;;15.75;4.40;;;;;;;;;;5016803;28;20200;-77
2022/04/09 03:38:02;;;;;;;14.40;3.78;;;;;;;;;;5018231;28;20226;-78
2022/04/09 03:40:30;;;;;;;14.07;4.15;;;;;;;;;;5026752;28;20199;-77
2022/04/09 03:42:57;;;;;;;12.85;4.03;;;;;;;;;;5030370;28;20703;-79
2022/04/09 03:45:24;;;;;;;10.05;3.95;;;;;;;;;;5030760;28;20214;-77
2022/04/09 03:47:51;;;;;;;10.05;4.10;;;;;;;;;;5030726;28;20688;-79
2022/04/09 03:50:20;;;;;;;15.48;4.38;;;;;;;;;;5030382;28;20246;-77
2022/04/09 03:52:48;;;;;;;18.20;5.28;;;;;;;;;;5011304;28;20206;-79
2022/04/09 03:55:15;;;;;;;17.23;4.65;;;;;;;;;;5018107;28;20665;-78
2022/04/09 03:57:44;;;;;;;17.05;4.28;;;;;;;;;;5027868;28;20215;-77
2022/04/09 04:00:13;;;;;;;11.93;4.32;;;;;;;;;;5030320;28;20195;-78
2022/04/09 04:02:41;;;;;;;15.18;3.55;;;;;;;;;;5030655;28;20254;-79
2022/04/09 04:05:08;;;;;;;9.98;4.22;;;;;;;;;;5013450;28;20665;-78
2022/04/09 04:07:36;;;;;;;13.55;3.80;;;;;;;;;;5028037;28;20199;-79
2022/04/09 04:10:04;;;;;;;11.52;4.25;;;;;;;;;;4995577;28;20203;-77
2022/04/09 04:12:31;;;;;;;10.30;4.75;;;;;;;;;;5012884;28;20204;-77
2022/04/09 04:14:59;;;;;;;13.80;4.30;;;;;;;;;;5016691;28;20204;-79
2022/04/09 04:17:26;;;;;;;14.75;4.03;;;;;;;;;;5017931;28;20207;-78
2022/04/09 04:19:54;;;;;;;16.40;4.93;;;;;;;;;;5012010;28;20673;-77
2022/04/09 04:22:21;;;;;;;8.50;4.00;;;;;;;;;;5010516;28;20212;-77
2022/04/09 04:24:49;;;;;;;13.32;4.80;;;;;;;;;;5010873;28;20206;-80
2022/04/09 04:27:16;;;;;;;12.45;3.80;;;;;;;;;;5011049;28;20207;-79
2022/04/09 04:29:43;;;;;;;10.85;3.58;;;;;;;;;;5010054;28;20235;-79
2022/04/09 04:32:11;;;;;;;13.38;4.40;;;;;;;;;;5014240;28;20195;-79
2022/04/09 04:34:38;;;;;;;17.92;3.90;;;;;;;;;;5016675;28;20204;-79
2022/04/09 04:37:05;;;;;;;15.95;4.38;;;;;;;;;;5019870;28;20649;-78
2022/04/09 04:39:33;;;;;;;15.82;3.67;;;;;;;;;;5022123;28;20230;-80
2022/04/09 04:42:03;;;;;;;9.93;3.78;;;;;;;;;;5016593;28;20206;-80
2022/04/09 04:44:32;;;;;;;16.38;4.20;;;;;;;;;;5014083;28;20688;-78
2022/04/09 04:46:59;;;;;;;9.85;3.75;;;;;;;;;;5014220;28;20204;-78
2022/04/09 04:49:28;;;;;;;8.10;3.55;;;;;;;;;;5014619;28;20234;-78
2022/04/09 04:51:55;;;;;;;13.38;3.70;;;;;;;;;;5014125;28;20203;-79
2022/04/09 04:54:22;;;;;;;15.65;3.60;;;;;;;;;;5016137;28;20661;-78
2022/04/09 04:56:50;;;;;;;9.05;3.55;;;;;;;;;;5016134;28;20203;-78
2022/04/09 04:59:18;;;;;;;8.07;3.95;;;;;;;;;;5018945;28;20306;-79
2022/04/09 05:01:45;;;;;;;14.60;3.75;;;;;;;;;;5021220;28;20671;-78
2022/04/09 05:04:12;;;;;;;16.38;3.67;;;;;;;;;;5016499;28;20215;-77
2022/04/09 05:06:40;;;;;;;19.00;4.32;;;;;;;;;;5013976;28;20195;-77
2022/04/09 05:09:07;;;;;;;14.68;4.15;;;;;;;;;;5013839;28;20231;-78
2022/04/09 05:11:34;;;;;;;10.82;3.53;;;;;;;;;;5013908;28;20204;-77
2022/04/09 05:14:03;;;;;;;8.23;3.65;;;;;;;;;;5014488;28;20196;-76
2022/04/09 05:16:30;;;;;;;16.83;4.72;;;;;;;;;;5015327;28;20204;-76
2022/04/09 05:18:58;;;;;;;17.92;4.00;;;;;;;;;;5015679;28;20220;-76
2022/04/09 05:21:25;;;;;;;14.38;3.78;;;;;;;;;;5018176;28;20192;-76
2022/04/09 05:23:53;;;;;;;19.20;4.20;;;;;;;;;;5021699;28;20223;-76
2022/04/09 05:26:20;;;;;;;11.80;3.75;;;;;;;;;;5017324;28;20201;-76
2022/04/09 05:28:52;;;;;;;13.20;4.75;;;;;;;;;;5013566;28;20220;-76
2022/04/09 05:31:20;;;;;;;8.95;3.90;;;;;;;;;;5013386;28;20729;-76
2022/04/09 05:33:47;;;;;;;11.32;4.15;;;;;;;;;;5013990;28;20196;-76
2022/04/09 05:36:14;;;;;;;10.05;3.58;;;;;;;;;;5014154;28;20211;-77
2022/04/09 05:38:41;;;;;;;8.95;3.75;;;;;;;;;;5014574;28;20224;-76
2022/04/09 05:41:10;;;;;;;14.02;4.05;;;;;;;;;;5015588;28;20208;-77
2022/04/09 05:43:37;;;;;;;15.07;4.20;;;;;;;;;;5016787;28;20215;-80
2022/04/09 05:46:04;;;;;;;11.80;4.25;;;;;;;;;;5021298;28;20206;-78
2022/04/09 05:48:31;;;;;;;16.58;3.95;;;;;;;;;;5017382;28;20224;-76
2022/04/09 05:50:58;;;;;;;13.50;4.10;;;;;;;;;;5013114;28;20199;-77
2022/04/09 05:53:26;;;;;;;11.60;3.85;;;;;;;;;;5013135;28;20291;-77
2022/04/09 05:55:53;;;;;;;12.02;3.92;;;;;;;;;;5013311;28;20287;-78
2022/04/09 05:58:21;;;;;;;14.10;3.83;;;;;;;;;;5013772;28;20219;-79
2022/04/09 06:00:48;;;;;;;11.07;3.78;;;;;;;;;;5013927;28;20204;-78
2022/04/09 06:03:17;;;;;;;9.05;3.50;;;;;;;;;;5014911;28;20223;-79
2022/04/09 06:05:44;;;;;;;11.35;3.83;;;;;;;;;;5015563;28;20192;-77
2022/04/09 06:08:12;;;;;;;10.60;3.90;;;;;;;;;;5020166;28;20236;-77
2022/04/09 06:10:39;;;;;;;10.48;3.38;;;;;;;;;;5023458;28;20649;-78
2022/04/09 06:13:07;;;;;;;9.82;3.15;;;;;;;;;;5032123;28;20231;-77
2022/04/09 06:15:36;;;;;;;14.50;4.40;;;;;;;;;;5032262;28;20203;-76
2022/04/09 06:18:06;;;;;;;12.93;4.07;;;;;;;;;;5032552;28;20225;-77
2022/04/09 06:20:33;;;;;;;9.75;3.40;;;;;;;;;;5032778;28;20669;-76
2022/04/09 06:23:00;;;;;;;17.65;4.50;;;;;;;;;;5021907;28;20224;-76
2022/04/09 06:25:28;;;;;;;8.98;3.65;;;;;;;;;;5014583;28;20654;-77
2022/04/09 06:27:55;;;;;;;15.25;4.55;;;;;;;;;;5014485;28;20235;-77
2022/04/09 06:30:22;;;;;;;13.52;4.35;;;;;;;;;;5020027;28;20597;-77
2022/04/09 06:32:50;;;;;;;11.32;3.90;;;;;;;;;;5019351;28;20202;-79
2022/04/09 06:35:18;;;;;;;10.35;3.60;;;;;;;;;;5011536;28;20208;-78
2022/04/09 06:37:45;;;;;;;11.70;3.75;;;;;;;;;;5011974;28;20308;-78
2022/04/09 06:40:13;;;;;;;10.70;4.15;;;;;;;;;;5012458;28;20266;-77
2022/04/09 06:42:40;;;;;;;9.17;4.17;;;;;;;;;;5012566;28;20200;-78
2022/04/09 06:45:09;;;;;;;12.40;3.70;;;;;;;;;;4995272;28;20477;-78
2022/04/09 06:47:37;;;;;;;7.43;3.90;;;;;;;;;;5013936;28;20211;-78
2022/04/09 06:50:08;;;;;;;10.37;4.13;;;;;;;;;;5013861;28;20475;-82
2022/04/09 06:52:35;;;;;;;15.00;4.40;;;;;;;;;;5019145;28;20924;-79
2022/04/09 06:55:02;;;;;;;9.00;3.40;;;;;;;;;;5018797;28;20447;-82
2022/04/09 06:57:29;;;;;;;10.50;4.00;;;;;;;;;;5011314;28;20451;-80
2022/04/09 06:59:57;;;;;;;8.30;3.10;;;;;;;;;;5011535;28;20454;-78
2022/04/09 07:02:24;;;;;;;9.30;3.17;;;;;;;;;;5012109;28;20450;-79
2022/04/09 07:04:53;;;;;;;11.27;3.77;;;;;;;;;;5012281;28;20701;-80
2022/04/09 07:07:22;;;;;;;6.53;3.53;;;;;;;;;;5011859;28;20451;-79
2022/04/09 07:09:49;;;;;;;14.40;3.50;;;;;;;;;;5013624;28;20891;-78
2022/04/09 07:12:16;;;;;;;8.60;3.23;;;;;;;;;;5013609;28;20443;-81
2022/04/09 07:14:43;;;;;;;11.67;3.20;;;;;;;;;;5017911;28;20434;-81
2022/04/09 07:17:11;;;;;;;9.63;3.67;;;;;;;;;;5018987;28;20438;-83
2022/04/09 07:19:38;;;;;;;11.60;3.07;;;;;;;;;;5029243;28;20469;-81
2022/04/09 07:22:06;;;;;;;8.80;3.30;;;;;;;;;;5031097;28;20488;-79
2022/04/09 07:24:34;;;;;;;8.73;2.63;;;;;;;;;;5031075;28;20633;-80
2022/04/09 07:27:02;;;;;;;9.37;3.43;;;;;;;;;;5031548;28;20457;-80
2022/04/09 07:29:29;;;;;;;10.57;3.73;;;;;;;;;;5028018;28;20506;-82
2022/04/09 07:31:56;;;;;;;8.00;3.27;;;;;;;;;;5013525;28;20824;-80
2022/04/09 07:34:23;;;;;;;9.43;3.50;;;;;;;;;;5013614;28;20446;-81
2022/04/09 07:36:50;;;;;;;10.10;3.50;;;;;;;;;;5016753;28;20434;-80
2022/04/09 07:39:18;;;;;;;11.17;4.30;;;;;;;;;;5018647;28;20458;-80
2022/04/09 07:41:46;;;;;;;12.77;4.30;;;;;;;;;;5013237;28;20479;-81
2022/04/09 07:44:13;;;;;;;8.07;3.40;;;;;;;;;;5011194;28;20573;-81
2022/04/09 07:46:41;;;;;;;13.20;4.23;;;;;;;;;;5011077;28;20454;-82
2022/04/09 07:49:08;;;;;;;9.13;3.47;;;;;;;;;;5011290;28;20822;-81
2022/04/09 07:51:35;;;;;;;8.73;3.60;;;;;;;;;;5011742;28;20447;-80
2022/04/09 07:54:02;;;;;;;12.63;3.23;;;;;;;;;;5012375;28;20458;-84
2022/04/09 07:56:29;;;;;;;11.60;3.70;;;;;;;;;;5012613;28;20451;-81
2022/04/09 07:58:58;;;;;;;12.73;4.10;;;;;;;;;;5015231;28;20967;-84
2022/04/09 08:01:25;;;;;;;9.43;4.00;;;;;;;;;;5018398;28;20435;-81
2022/04/09 08:03:52;;;;;;;10.87;3.30;;;;;;;;;;5014670;28;21232;-81
2022/04/09 08:06:19;;;;;;;8.27;3.00;;;;;;;;;;5010332;28;20454;-81
2022/04/09 08:08:46;;;;;;;9.10;3.20;;;;;;;;;;5010518;28;20482;-83
2022/04/09 08:11:14;;;;;;;8.70;3.30;;;;;;;;;;5011182;28;20458;-76
2022/04/09 08:13:41;;;;;;;10.60;3.23;;;;;;;;;;5011395;28;20443;-79
2022/04/09 08:16:09;;;;;;;5.73;2.70;;;;;;;;;;5011768;28;20477;-77
2022/04/09 08:18:38;;;;;;;10.77;3.37;;;;;;;;;;5012528;28;20470;-78
2022/04/09 08:21:05;;;;;;;9.20;3.47;;;;;;;;;;5013868;28;20446;-82
2022/04/09 08:23:32;;;;;;;19.93;3.93;;;;;;;;;;5017653;28;20506;-78
2022/04/09 08:26:00;;;;;;;7.70;2.83;;;;;;;;;;5021184;28;20484;-79
2022/04/09 08:28:30;;;;;;;7.90;3.10;;;;;;;;;;5030270;28;20481;-82
2022/04/09 08:30:57;;;;;;;6.80;2.73;;;;;;;;;;5030337;28;20541;-80
2022/04/09 08:33:25;;;;;;;8.33;3.20;;;;;;;;;;5030331;28;20971;-81
2022/04/09 08:35:53;;;;;;;10.83;3.13;;;;;;;;;;5030607;28;20454;-80
2022/04/09 08:38:20;;;;;;;11.63;3.83;;;;;;;;;;5019116;28;20972;-77
2022/04/09 08:40:48;;;;;;;9.67;3.23;;;;;;;;;;5012638;28;20451;-83
2022/04/09 08:43:15;;;;;;;10.87;3.67;;;;;;;;;;5012014;28;20456;-80
2022/04/09 08:45:42;;;;;;;8.10;3.27;;;;;;;;;;5017872;28;20799;-81
2022/04/09 08:48:10;;;;;;;10.57;3.40;;;;;;;;;;5018792;28;20466;-81
2022/04/09 08:50:39;;;;;;;8.60;2.90;;;;;;;;;;5029255;28;20470;-78
2022/04/09 08:53:07;;;;;;;9.20;4.20;;;;;;;;;;5029711;28;20451;-80
2022/04/09 08:55:35;;;;;;;7.83;3.50;;;;;;;;;;5030056;28;20446;-77
2022/04/09 08:58:02;;;;;;;8.07;3.40;;;;;;;;;;5030421;28;20468;-79
2022/04/09 09:00:29;;;;;;;8.13;2.90;;;;;;;;;;5022112;28;20469;-81
2022/04/09 09:02:58;;;;;;;7.47;2.77;;;;;;;;;;5016656;28;20939;-81
2022/04/09 09:05:29;;;;;;;11.10;3.60;;;;;;;;;;5017793;28;20993;-82
2022/04/09 09:07:58;;;;;;;7.20;3.43;;;;;;;;;;4993014;28;20458;-80
2022/04/09 09:10:25;;;;;;;9.53;2.90;;;;;;;;;;5010218;28;20479;-80
2022/04/09 09:13:00;;;;;;;4.33;2.40;;;;;;;;;;5010177;28;20447;-78
2022/04/09 09:15:28;;;;;;;7.53;2.40;;;;;;;;;;5010561;28;20533;-79
2022/04/09 09:17:57;;;;;;;8.03;2.97;;;;;;;;;;5011346;28;20474;-81
2022/04/09 09:20:24;;;;;;;8.00;3.00;;;;;;;;;;5015732;28;20505;-78
2022/04/09 09:22:51;;;;;;;6.87;2.80;;;;;;;;;;5015897;28;20439;-84
2022/04/09 09:25:20;;;;;;;9.57;2.70;;;;;;;;;;5002288;28;20858;-79
2022/04/09 09:27:57;;;;;;;9.73;2.83;;;;;;;;;;5019720;28;20470;-79
2022/04/09 09:30:24;;;;;;;6.97;2.37;;;;;;;;;;4992746;28;20455;-79
2022/04/09 09:33:06;;;;;;;5.53;2.50;;;;;;;;;;4993868;28;20543;-79
2022/04/09 09:35:48;;;;;;;6.20;2.97;;;;;;;;;;4998228;28;20493;-76
2022/04/09 09:38:18;;;;;;;9.20;2.77;;;;;;;;;;5014353;28;20470;-83
2022/04/09 09:40:47;;;;;;;9.47;2.90;;;;;;;;;;4996873;28;20466;-79
2022/04/09 09:43:14;;;;;;;7.17;2.90;;;;;;;;;;5021023;28;20444;-79
2022/04/09 09:45:41;;;;;;;8.37;2.77;;;;;;;;;;5019601;28;20979;-80
2022/04/09 09:48:20;;;;;;;5.87;2.17;;;;;;;;;;4995320;28;20469;-79
2022/04/09 09:50:47;;;;;;;8.97;3.00;;;;;;;;;;5012701;28;20442;-81
2022/04/09 09:53:14;;;;;;;5.37;2.53;;;;;;;;;;5013603;28;20447;-80
2022/04/09 09:55:43;;;;;;;4.33;2.20;;;;;;;;;;5013598;28;20439;-79
2022/04/09 09:58:12;;;;;;;4.20;2.00;;;;;;;;;;5013717;28;20487;-80
2022/04/09 10:00:40;;;;;;;8.00;2.73;;;;;;;;;;5014321;28;20446;-77
2022/04/09 10:03:09;;;;;;;6.73;2.60;;;;;;;;;;5014683;28;20545;-78
2022/04/09 10:05:39;;;;;;;5.53;2.53;;;;;;;;;;5019861;28;20474;-78
2022/04/09 10:08:06;;;;;;;5.20;2.63;;;;;;;;;;5020404;28;20474;-79
2022/04/09 10:10:36;;;;;;;7.23;2.60;;;;;;;;;;5016412;28;20447;-77
2022/04/09 10:13:03;;;;;;;11.33;3.40;;;;;;;;;;5012777;28;20457;-78
2022/04/09 10:15:32;;;;;;;7.87;2.50;;;;;;;;;;5013044;28;20446;-80
2022/04/09 10:18:00;;;;;;;6.40;2.50;;;;;;;;;;5013142;28;20821;-79
2022/04/09 10:20:27;;;;;;;8.03;3.10;;;;;;;;;;5012731;28;20466;-79
2022/04/09 10:22:58;;;;;;;5.70;2.67;;;;;;;;;;4997178;28;20451;-79
2022/04/09 10:25:28;;;;;;;8.27;3.60;;;;;;;;;;5013688;28;20479;-78
2022/04/09 10:28:01;;;;;;;6.70;2.70;;;;;;;;;;5018391;28;20481;-79
2022/04/09 10:30:29;;;;;;;4.60;2.20;;;;;;;;;;5018519;28;20454;-78
2022/04/09 10:32:59;;;;;;;8.33;2.20;;;;;;;;;;4983048;28;20490;-79
2022/04/09 10:35:27;;;;;;;7.53;2.83;;;;;;;;;;4992900;28;20447;-79
2022/04/09 10:38:09;;;;;;;7.47;2.57;;;;;;;;;;4993152;28;20474;-80
2022/04/09 10:40:37;;;;;;;7.17;2.20;;;;;;;;;;4986323;28;20449;-81
2022/04/09 10:43:05;;;;;;;7.40;2.70;;;;;;;;;;5011750;28;20529;-79
2022/04/09 10:45:32;;;;;;;7.63;2.47;;;;;;;;;;5011724;28;20486;-79
2022/04/09 10:48:10;;;;;;;6.43;2.50;;;;;;;;;;4998675;28;20455;-78
2022/04/09 10:50:52;;;;;;;12.67;4.83;;;;;;;;;;4994323;28;20484;-77
2022/04/09 10:53:21;;;;;;;5.47;2.57;;;;;;;;;;4988917;28;20949;-78
2022/04/09 10:56:03;;;;;;;7.70;2.57;;;;;;;;;;4989084;28;20451;-77
2022/04/09 10:58:30;;;;;;;6.13;2.70;;;;;;;;;;4987977;28;20471;-78
2022/04/09 11:00:57;;;;;;;6.13;2.53;;;;;;;;;;4988938;28;20980;-79
2022/04/09 11:03:39;;;;;;;4.30;2.30;;;;;;;;;;4989380;28;20460;-84
2022/04/09 11:06:21;;;;;;;7.17;3.10;;;;;;;;;;4989217;28;20486;-79
2022/04/09 11:08:59;;;;;;;5.73;2.70;;;;;;;;;;4991643;28;20893;-80
2022/04/09 11:11:27;;;;;;;6.10;2.73;;;;;;;;;;4995465;28;20438;-81
2022/04/09 11:13:54;;;;;;;4.60;2.30;;;;;;;;;;5000777;28;20443;-78
2022/04/09 11:16:22;;;;;;;6.33;2.80;;;;;;;;;;4988470;28;20941;-79
2022/04/09 11:18:49;;;;;;;7.00;2.73;;;;;;;;;;4988698;28;20816;-76
2022/04/09 11:21:16;;;;;;;6.17;3.27;;;;;;;;;;4988598;28;20447;-81
2022/04/09 11:23:45;;;;;;;4.30;2.20;;;;;;;;;;4989133;28;20493;-78
2022/04/09 11:26:17;;;;;;;5.07;2.23;;;;;;;;;;4989271;28;20491;-78
2022/04/09 11:28:46;;;;;;;4.07;2.13;;;;;;;;;;4989372;28;20487;-78
2022/04/09 11:31:20;;;;;;;4.83;1.90;;;;;;;;;;4992809;28;20453;-78
2022/04/09 11:33:57;;;;;;;6.80;2.37;;;;;;;;;;4996536;28;20849;-80
2022/04/09 11:36:24;;;;;;;3.63;2.00;;;;;;;;;;4995994;28;20510;-79
2022/04/09 11:38:52;;;;;;;3.80;2.47;;;;;;;;;;4990935;28;20474;-78
2022/04/09 11:41:21;;;;;;;3.60;1.97;;;;;;;;;;4990226;28;20447;-79
2022/04/09 11:43:48;;;;;;;13.47;3.93;;;;;;;;;;4992076;28;20825;-80
2022/04/09 11:46:15;;;;;;;3.93;2.53;;;;;;;;;;4991913;28;20559;-79
2022/04/09 11:48:42;;;;;;;9.50;2.07;;;;;;;;;;4995633;28;20862;-76
2022/04/09 11:51:18;;;;;;;4.97;2.50;;;;;;;;;;5012739;28;20450;-78
2022/04/09 11:53:45;;;;;;;2.90;1.80;;;;;;;;;;5013567;28;20435;-79
2022/04/09 11:56:12;;;;;;;4.13;1.60;;;;;;;;;;5017817;28;20450;-78
2022/04/09 11:58:41;;;;;;;2.60;1.60;;;;;;;;;;5021224;28;20462;-80
2022/04/09 12:01:09;;;;;;;5.57;2.20;;;;;;;;;;5021905;28;20443;-80
2022/04/09 12:03:37;;;;;;;3.10;1.80;;;;;;;;;;5010668;28;20447;-80
2022/04/09 12:06:06;;;;;;;1.97;1.70;;;;;;;;;;5011008;28;20566;-78
2022/04/09 12:08:36;;;;;;;2.90;2.17;;;;;;;;;;5011139;28;20827;-79
2022/04/09 12:11:04;;;;;;;4.67;2.20;;;;;;;;;;5012123;28;20540;-75
2022/04/09 12:13:32;;;;;;;2.60;1.93;;;;;;;;;;5013486;28;20967;-76
2022/04/09 12:16:15;;;;;;;2.80;2.27;;;;;;;;;;5013490;28;21115;-77
2022/04/09 12:18:43;;;;;;;6.30;2.37;;;;;;;;;;5017550;28;20530;-76
2022/04/09 12:21:18;;;;;;;3.80;2.50;;;;;;;;;;5017892;28;20459;-76
2022/04/09 12:23:46;;;;;;;2.83;2.50;;;;;;;;;;5009796;28;20456;-76
2022/04/09 12:26:22;;;;;;;4.97;2.80;;;;;;;;;;5010520;28;20849;-77
2022/04/09 12:29:05;;;;;;;3.67;2.43;;;;;;;;;;5010653;28;20498;-76
2022/04/09 12:31:34;;;;;;;3.73;2.70;;;;;;;;;;4993658;28;20447;-77
2022/04/09 12:34:01;;;;;;;7.67;2.90;;;;;;;;;;5010887;28;20474;-75
2022/04/09 12:36:29;;;;;;;4.53;2.30;;;;;;;;;;5012525;28;20805;-77
2022/04/09 12:38:56;;;;;;;3.87;2.10;;;;;;;;;;5012730;28;20820;-75
2022/04/09 12:41:23;;;;;;;6.13;2.07;;;;;;;;;;5016593;28;20457;-75
2022/04/09 12:43:52;;;;;;;4.60;2.17;;;;;;;;;;5018435;28;20457;-76
2022/04/09 12:46:20;;;;;;;7.00;1.90;;;;;;;;;;5016963;28;20569;-76
2022/04/09 12:48:49;;;;;;;3.37;1.80;;;;;;;;;;4992609;28;20852;-77
2022/04/09 12:51:18;;;;;;;9.87;2.00;;;;;;;;;;5010507;28;20473;-76
2022/04/09 12:53:48;;;;;;;1.90;1.60;;;;;;;;;;5013242;28;20490;-76
2022/04/09 12:56:16;;;;;;;2.60;1.93;;;;;;;;;;5014179;28;20866;-76
2022/04/09 12:58:43;;;;;;;4.73;2.17;;;;;;;;;;5016243;28;20827;-75
2022/04/09 13:01:13;;;;;;;5.07;1.87;;;;;;;;;;5015927;28;20927;-76
2022/04/09 13:03:40;;;;;;;3.17;2.10;;;;;;;;;;5020162;28;20814;-75
2022/04/09 13:06:09;;;;;;;5.10;2.10;;;;;;;;;;5021089;28;20844;-75
2022/04/09 13:08:36;;;;;;;3.10;1.77;;;;;;;;;;5014660;28;20459;-75
2022/04/09 13:11:05;;;;;;;5.80;2.50;;;;;;;;;;5013459;28;20447;-76
2022/04/09 13:13:32;;;;;;;4.17;2.43;;;;;;;;;;5014268;28;20493;-75
2022/04/09 13:15:59;;;;;;;2.10;1.57;;;;;;;;;;5014522;28;20454;-76
2022/04/09 13:18:27;;;;;;;3.90;2.00;;;;;;;;;;5013675;28;20469;-75
2022/04/09 13:20:54;;;;;;;4.27;2.33;;;;;;;;;;5015686;28;20469;-75
2022/04/09 13:23:22;;;;;;;5.30;2.53;;;;;;;;;;5014759;28;20438;-77
2022/04/09 13:25:52;;;;;;;3.50;2.17;;;;;;;;;;5018746;28;20486;-76
2022/04/09 13:28:20;;;;;;;3.20;1.90;;;;;;;;;;5021099;28;21060;-76
2022/04/09 13:30:47;;;;;;;2.77;1.83;;;;;;;;;;5017789;28;21023;-76
2022/04/09 13:33:14;;;;;;;2.67;1.80;;;;;;;;;;5013564;28;20443;-76
2022/04/09 13:35:43;;;;;;;2.50;1.70;;;;;;;;;;5013416;28;20442;-76
2022/04/09 13:38:10;;;;;;;7.10;1.80;;;;;;;;;;5013221;28;20561;-76
2022/04/09 13:40:39;;;;;;;4.17;1.90;;;;;;;;;;5013628;28;20450;-76
2022/04/09 13:43:06;;;;;;;4.03;1.40;;;;;;;;;;5014649;28;20469;-76
2022/04/09 13:45:34;;;;;;;3.53;1.50;;;;;;;;;;5014818;28;20479;-75
2022/04/09 13:48:01;;;;;;;4.70;1.60;;;;;;;;;;5017638;28;20461;-76
2022/04/09 13:50:29;;;;;;;4.23;1.77;;;;;;;;;;5020280;28;20566;-75
2022/04/09 13:52:56;;;;;;;3.13;1.70;;;;;;;;;;5023809;28;20451;-75
2022/04/09 13:55:24;;;;;;;4.13;1.63;;;;;;;;;;5013070;28;20683;-75
2022/04/09 13:57:52;;;;;;;4.13;1.90;;;;;;;;;;5012816;28;20498;-76
2022/04/09 14:00:20;;;;;;;2.90;2.27;;;;;;;;;;5011795;28;20450;-77
2022/04/09 14:02:47;;;;;;;3.17;1.97;;;;;;;;;;5013402;28;20439;-76
2022/04/09 14:05:14;;;;;;;3.70;1.70;;;;;;;;;;5013454;28;21016;-76
2022/04/09 14:07:41;;;;;;;3.60;2.00;;;;;;;;;;4997110;28;20463;-76
2022/04/09 14:10:09;;;;;;;2.47;1.87;;;;;;;;;;5013650;28;20481;-76
2022/04/09 14:12:36;;;;;;;5.23;1.90;;;;;;;;;;5013382;28;21020;-77
2022/04/09 14:15:05;;;;;;;4.50;2.30;;;;;;;;;;5006670;28;20454;-76
2022/04/09 14:17:32;;;;;;;4.07;2.10;;;;;;;;;;5012451;28;20443;-75
2022/04/09 14:20:00;;;;;;;5.10;1.80;;;;;;;;;;5013175;28;20454;-76
2022/04/09 14:22:27;;;;;;;4.63;1.40;;;;;;;;;;4993545;28;20543;-76
2022/04/09 14:24:54;;;;;;;3.67;1.60;;;;;;;;;;5011988;28;20451;-76
2022/04/09 14:27:24;;;;;;;2.60;1.30;;;;;;;;;;5013160;28;20463;-76
2022/04/09 14:29:51;;;;;;;3.00;1.70;;;;;;;;;;5014268;28;20443;-76
2022/04/09 14:32:19;;;;;;;4.23;1.50;;;;;;;;;;5011595;28;20447;-75
2022/04/09 14:34:48;;;;;;;3.33;1.60;;;;;;;;;;5019738;28;20461;-76
2022/04/09 14:37:15;;;;;;;2.90;1.70;;;;;;;;;;5015291;28;20462;-75
2022/04/09 14:39:44;;;;;;;2.57;1.70;;;;;;;;;;5011020;28;20807;-79
2022/04/09 14:42:11;;;;;;;2.77;1.60;;;;;;;;;;5011705;28;20475;-81
2022/04/09 14:44:38;;;;;;;2.87;1.47;;;;;;;;;;5012407;28;20813;-80
2022/04/09 14:47:06;;;;;;;2.07;1.50;;;;;;;;;;5012004;28;20478;-80